sensor_id;sensor_type;location;lat;lon;timestamp;P1;durP1;ratioP1;P2;durP2;ratioP2
17574;SDS011;8906;43.590;1.418;2023-04-08T00:02:02;5.10;;;4.33;;
17574;SDS011;8906;43.590;1.418;2023-04-08T00:04:29;5.07;;;3.83;;
17574;SDS011;8906;43.590;1.418;2023-04-08T00:06:58;5.50;;;4.43;;
17574;SDS011;8906;43.590;1.418;2023-04-08T00:09:25;4.63;;;3.60;;
17574;SDS011;8906;43.590;1.418;2023-04-08T00:11:52;5.17;;;4.27;;
17574;SDS011;8906;43.590;1.418;2023-04-08T00:14:19;7.53;;;4.50;;
17574;SDS011;8906;43.590;1.418;2023-04-08T00:16:45;4.97;;;3.93;;
17574;SDS011;8906;43.590;1.418;2023-04-08T00:19:12;6.50;;;3.70;;
17574;SDS011;8906;43.590;1.418;2023-04-08T00:21:39;4.97;;;4.20;;
17574;SDS011;8906;43.590;1.418;2023-04-08T00:24:07;6.03;;;3.47;;
17574;SDS011;8906;43.590;1.418;2023-04-08T00:26:34;5.33;;;3.80;;
17574;SDS011;8906;43.590;1.418;2023-04-08T00:29:01;4.67;;;3.43;;
17574;SDS011;8906;43.590;1.418;2023-04-08T00:31:28;4.93;;;3.57;;
17574;SDS011;8906;43.590;1.418;2023-04-08T00:33:56;4.53;;;4.07;;
17574;SDS011;8906;43.590;1.418;2023-04-08T00:36:23;7.93;;;3.80;;
17574;SDS011;8906;43.590;1.418;2023-04-08T00:38:51;9.10;;;4.07;;
17574;SDS011;8906;43.590;1.418;2023-04-08T00:41:20;6.27;;;4.57;;
17574;SDS011;8906;43.590;1.418;2023-04-08T00:43:46;5.50;;;3.80;;
17574;SDS011;8906;43.590;1.418;2023-04-08T00:46:14;6.00;;;3.23;;
17574;SDS011;8906;43.590;1.418;2023-04-08T00:48:41;5.93;;;4.47;;
17574;SDS011;8906;43.590;1.418;2023-04-08T00:51:07;4.07;;;3.20;;
17574;SDS011;8906;43.590;1.418;2023-04-08T00:53:35;6.67;;;3.30;;
17574;SDS011;8906;43.590;1.418;2023-04-08T00:56:02;6.73;;;4.27;;
17574;SDS011;8906;43.590;1.418;2023-04-08T00:58:30;6.57;;;3.43;;
17574;SDS011;8906;43.590;1.418;2023-04-08T01:00:59;3.80;;;3.40;;
17574;SDS011;8906;43.590;1.418;2023-04-08T01:03:34;7.00;;;3.50;;
17574;SDS011;8906;43.590;1.418;2023-04-08T01:06:09;3.73;;;3.03;;
17574;SDS011;8906;43.590;1.418;2023-04-08T01:08:42;4.63;;;4.10;;
17574;SDS011;8906;43.590;1.418;2023-04-08T01:11:11;5.87;;;4.20;;
17574;SDS011;8906;43.590;1.418;2023-04-08T01:13:41;3.60;;;3.30;;
17574;SDS011;8906;43.590;1.418;2023-04-08T01:16:11;3.70;;;3.00;;
17574;SDS011;8906;43.590;1.418;2023-04-08T01:18:41;5.83;;;3.90;;
17574;SDS011;8906;43.590;1.418;2023-04-08T01:21:09;5.13;;;3.70;;
17574;SDS011;8906;43.590;1.418;2023-04-08T01:23:38;5.83;;;3.97;;
17574;SDS011;8906;43.590;1.418;2023-04-08T01:26:19;7.60;;;3.73;;
17574;SDS011;8906;43.590;1.418;2023-04-08T01:28:47;4.17;;;2.93;;
17574;SDS011;8906;43.590;1.418;2023-04-08T01:31:15;4.73;;;3.23;;
17574;SDS011;8906;43.590;1.418;2023-04-08T01:33:43;4.30;;;3.47;;
17574;SDS011;8906;43.590;1.418;2023-04-08T01:36:10;5.00;;;2.90;;
17574;SDS011;8906;43.590;1.418;2023-04-08T01:38:38;4.93;;;3.73;;
17574;SDS011;8906;43.590;1.418;2023-04-08T01:41:05;4.40;;;3.47;;
17574;SDS011;8906;43.590;1.418;2023-04-08T01:43:35;4.60;;;3.40;;
17574;SDS011;8906;43.590;1.418;2023-04-08T01:46:05;3.93;;;2.90;;
17574;SDS011;8906;43.590;1.418;2023-04-08T01:48:33;2.90;;;2.70;;
17574;SDS011;8906;43.590;1.418;2023-04-08T01:51:01;5.37;;;2.90;;
17574;SDS011;8906;43.590;1.418;2023-04-08T01:53:30;3.30;;;3.00;;
17574;SDS011;8906;43.590;1.418;2023-04-08T01:56:00;3.77;;;2.67;;
17574;SDS011;8906;43.590;1.418;2023-04-08T01:58:31;5.37;;;3.23;;
17574;SDS011;8906;43.590;1.418;2023-04-08T02:01:13;4.47;;;3.87;;
17574;SDS011;8906;43.590;1.418;2023-04-08T02:03:44;3.60;;;2.10;;
17574;SDS011;8906;43.590;1.418;2023-04-08T02:06:12;2.97;;;2.70;;
17574;SDS011;8906;43.590;1.418;2023-04-08T02:08:39;7.03;;;3.07;;
17574;SDS011;8906;43.590;1.418;2023-04-08T02:11:05;2.63;;;2.40;;
17574;SDS011;8906;43.590;1.418;2023-04-08T02:13:32;2.27;;;2.03;;
17574;SDS011;8906;43.590;1.418;2023-04-08T02:16:03;4.13;;;2.57;;
17574;SDS011;8906;43.590;1.418;2023-04-08T02:18:33;3.70;;;2.40;;
17574;SDS011;8906;43.590;1.418;2023-04-08T02:21:03;4.00;;;2.50;;
17574;SDS011;8906;43.590;1.418;2023-04-08T02:23:36;2.97;;;2.57;;
17574;SDS011;8906;43.590;1.418;2023-04-08T02:26:05;5.03;;;3.03;;
17574;SDS011;8906;43.590;1.418;2023-04-08T02:28:35;3.37;;;2.40;;
17574;SDS011;8906;43.590;1.418;2023-04-08T02:31:05;3.80;;;3.40;;
17574;SDS011;8906;43.590;1.418;2023-04-08T02:33:37;4.00;;;3.30;;
17574;SDS011;8906;43.590;1.418;2023-04-08T02:36:05;3.63;;;2.83;;
17574;SDS011;8906;43.590;1.418;2023-04-08T02:38:33;2.37;;;2.10;;
17574;SDS011;8906;43.590;1.418;2023-04-08T02:41:00;2.93;;;2.70;;
17574;SDS011;8906;43.590;1.418;2023-04-08T02:43:27;3.60;;;3.30;;
17574;SDS011;8906;43.590;1.418;2023-04-08T02:45:56;3.00;;;2.40;;
17574;SDS011;8906;43.590;1.418;2023-04-08T02:48:25;3.57;;;3.07;;
17574;SDS011;8906;43.590;1.418;2023-04-08T02:50:52;3.37;;;3.03;;
17574;SDS011;8906;43.590;1.418;2023-04-08T02:53:21;2.80;;;2.53;;
17574;SDS011;8906;43.590;1.418;2023-04-08T02:55:48;3.60;;;2.97;;
17574;SDS011;8906;43.590;1.418;2023-04-08T02:58:15;3.10;;;2.80;;
17574;SDS011;8906;43.590;1.418;2023-04-08T03:00:42;3.40;;;2.60;;
17574;SDS011;8906;43.590;1.418;2023-04-08T03:03:09;4.70;;;2.97;;
17574;SDS011;8906;43.590;1.418;2023-04-08T03:05:37;3.20;;;2.07;;
17574;SDS011;8906;43.590;1.418;2023-04-08T03:08:04;3.50;;;2.67;;
17574;SDS011;8906;43.590;1.418;2023-04-08T03:10:31;6.13;;;3.63;;
17574;SDS011;8906;43.590;1.418;2023-04-08T03:12:58;4.13;;;2.80;;
17574;SDS011;8906;43.590;1.418;2023-04-08T03:15:25;9.77;;;3.53;;
17574;SDS011;8906;43.590;1.418;2023-04-08T03:17:52;3.63;;;2.77;;
17574;SDS011;8906;43.590;1.418;2023-04-08T03:20:19;7.30;;;3.20;;
17574;SDS011;8906;43.590;1.418;2023-04-08T03:22:47;3.83;;;2.87;;
17574;SDS011;8906;43.590;1.418;2023-04-08T03:25:14;5.37;;;3.20;;
17574;SDS011;8906;43.590;1.418;2023-04-08T03:27:41;5.37;;;2.63;;
17574;SDS011;8906;43.590;1.418;2023-04-08T03:30:08;3.33;;;3.03;;
17574;SDS011;8906;43.590;1.418;2023-04-08T03:32:35;4.23;;;2.73;;
17574;SDS011;8906;43.590;1.418;2023-04-08T03:35:03;6.03;;;2.80;;
17574;SDS011;8906;43.590;1.418;2023-04-08T03:37:30;5.07;;;2.77;;
17574;SDS011;8906;43.590;1.418;2023-04-08T03:39:58;5.13;;;3.07;;
17574;SDS011;8906;43.590;1.418;2023-04-08T03:42:25;4.73;;;3.23;;
17574;SDS011;8906;43.590;1.418;2023-04-08T03:44:52;5.17;;;3.40;;
17574;SDS011;8906;43.590;1.418;2023-04-08T03:47:19;4.10;;;2.47;;
17574;SDS011;8906;43.590;1.418;2023-04-08T03:49:46;3.57;;;3.23;;
17574;SDS011;8906;43.590;1.418;2023-04-08T03:52:13;2.93;;;2.37;;
17574;SDS011;8906;43.590;1.418;2023-04-08T03:54:40;5.53;;;3.57;;
17574;SDS011;8906;43.590;1.418;2023-04-08T03:57:08;4.30;;;3.17;;
17574;SDS011;8906;43.590;1.418;2023-04-08T03:59:36;3.47;;;3.07;;
17574;SDS011;8906;43.590;1.418;2023-04-08T04:02:03;5.30;;;3.67;;
17574;SDS011;8906;43.590;1.418;2023-04-08T04:04:30;6.57;;;3.17;;
17574;SDS011;8906;43.590;1.418;2023-04-08T04:06:57;3.70;;;3.33;;
17574;SDS011;8906;43.590;1.418;2023-04-08T04:09:24;5.07;;;2.60;;
17574;SDS011;8906;43.590;1.418;2023-04-08T04:11:52;3.93;;;3.03;;
17574;SDS011;8906;43.590;1.418;2023-04-08T04:14:20;4.43;;;2.97;;
17574;SDS011;8906;43.590;1.418;2023-04-08T04:16:47;5.67;;;2.93;;
17574;SDS011;8906;43.590;1.418;2023-04-08T04:19:13;5.23;;;3.57;;
17574;SDS011;8906;43.590;1.418;2023-04-08T04:21:41;5.97;;;3.20;;
17574;SDS011;8906;43.590;1.418;2023-04-08T04:24:08;7.10;;;3.23;;
17574;SDS011;8906;43.590;1.418;2023-04-08T04:26:35;5.33;;;4.03;;
17574;SDS011;8906;43.590;1.418;2023-04-08T04:29:02;4.90;;;3.80;;
17574;SDS011;8906;43.590;1.418;2023-04-08T04:31:30;5.90;;;3.77;;
17574;SDS011;8906;43.590;1.418;2023-04-08T04:33:57;5.37;;;3.10;;
17574;SDS011;8906;43.590;1.418;2023-04-08T04:36:24;3.93;;;3.53;;
17574;SDS011;8906;43.590;1.418;2023-04-08T04:38:51;5.10;;;2.87;;
17574;SDS011;8906;43.590;1.418;2023-04-08T04:41:18;4.60;;;4.20;;
17574;SDS011;8906;43.590;1.418;2023-04-08T04:43:45;4.30;;;3.63;;
17574;SDS011;8906;43.590;1.418;2023-04-08T04:46:12;5.73;;;3.33;;
17574;SDS011;8906;43.590;1.418;2023-04-08T04:48:40;4.83;;;4.33;;
17574;SDS011;8906;43.590;1.418;2023-04-08T04:51:07;3.23;;;2.93;;
17574;SDS011;8906;43.590;1.418;2023-04-08T04:53:34;7.50;;;3.10;;
17574;SDS011;8906;43.590;1.418;2023-04-08T04:56:01;3.63;;;2.87;;
17574;SDS011;8906;43.590;1.418;2023-04-08T04:58:28;5.00;;;2.30;;
17574;SDS011;8906;43.590;1.418;2023-04-08T05:00:56;2.73;;;2.37;;
17574;SDS011;8906;43.590;1.418;2023-04-08T05:03:22;3.80;;;2.60;;
17574;SDS011;8906;43.590;1.418;2023-04-08T05:05:51;5.10;;;3.43;;
17574;SDS011;8906;43.590;1.418;2023-04-08T05:08:19;5.17;;;3.43;;
17574;SDS011;8906;43.590;1.418;2023-04-08T05:10:46;3.93;;;3.50;;
17574;SDS011;8906;43.590;1.418;2023-04-08T05:13:14;5.33;;;3.27;;
17574;SDS011;8906;43.590;1.418;2023-04-08T05:15:41;4.93;;;3.27;;
17574;SDS011;8906;43.590;1.418;2023-04-08T05:18:09;4.13;;;3.07;;
17574;SDS011;8906;43.590;1.418;2023-04-08T05:20:36;3.83;;;3.13;;
17574;SDS011;8906;43.590;1.418;2023-04-08T05:23:04;4.57;;;3.37;;
17574;SDS011;8906;43.590;1.418;2023-04-08T05:25:32;5.30;;;4.30;;
17574;SDS011;8906;43.590;1.418;2023-04-08T05:27:59;4.70;;;4.30;;
17574;SDS011;8906;43.590;1.418;2023-04-08T05:30:25;4.90;;;3.50;;
17574;SDS011;8906;43.590;1.418;2023-04-08T05:32:52;4.80;;;4.07;;
17574;SDS011;8906;43.590;1.418;2023-04-08T05:35:20;4.50;;;3.33;;
17574;SDS011;8906;43.590;1.418;2023-04-08T05:37:47;4.53;;;3.53;;
17574;SDS011;8906;43.590;1.418;2023-04-08T05:40:15;4.30;;;3.60;;
17574;SDS011;8906;43.590;1.418;2023-04-08T05:42:42;6.50;;;3.87;;
17574;SDS011;8906;43.590;1.418;2023-04-08T05:45:09;6.00;;;3.40;;
17574;SDS011;8906;43.590;1.418;2023-04-08T05:47:36;6.23;;;3.87;;
17574;SDS011;8906;43.590;1.418;2023-04-08T05:50:03;4.37;;;3.60;;
17574;SDS011;8906;43.590;1.418;2023-04-08T05:52:31;3.87;;;3.47;;
17574;SDS011;8906;43.590;1.418;2023-04-08T05:54:57;6.60;;;3.60;;
17574;SDS011;8906;43.590;1.418;2023-04-08T05:57:26;7.23;;;3.60;;
17574;SDS011;8906;43.590;1.418;2023-04-08T05:59:53;6.40;;;4.17;;
17574;SDS011;8906;43.590;1.418;2023-04-08T06:02:20;5.57;;;3.47;;
17574;SDS011;8906;43.590;1.418;2023-04-08T06:04:46;4.23;;;3.80;;
17574;SDS011;8906;43.590;1.418;2023-04-08T06:07:13;5.30;;;3.97;;
17574;SDS011;8906;43.590;1.418;2023-04-08T06:09:40;4.63;;;3.77;;
17574;SDS011;8906;43.590;1.418;2023-04-08T06:12:07;4.80;;;4.03;;
17574;SDS011;8906;43.590;1.418;2023-04-08T06:14:35;5.03;;;3.50;;
17574;SDS011;8906;43.590;1.418;2023-04-08T06:17:03;4.13;;;3.70;;
17574;SDS011;8906;43.590;1.418;2023-04-08T06:19:30;3.83;;;3.37;;
17574;SDS011;8906;43.590;1.418;2023-04-08T06:21:57;4.43;;;3.67;;
17574;SDS011;8906;43.590;1.418;2023-04-08T06:24:24;6.03;;;3.50;;
17574;SDS011;8906;43.590;1.418;2023-04-08T06:26:51;5.93;;;3.63;;
17574;SDS011;8906;43.590;1.418;2023-04-08T06:29:18;8.07;;;3.90;;
17574;SDS011;8906;43.590;1.418;2023-04-08T06:31:47;3.73;;;3.43;;
17574;SDS011;8906;43.590;1.418;2023-04-08T06:34:14;5.10;;;3.90;;
17574;SDS011;8906;43.590;1.418;2023-04-08T06:36:41;5.37;;;3.47;;
17574;SDS011;8906;43.590;1.418;2023-04-08T06:39:08;6.47;;;3.00;;
17574;SDS011;8906;43.590;1.418;2023-04-08T06:41:35;4.13;;;3.30;;
17574;SDS011;8906;43.590;1.418;2023-04-08T06:44:02;4.40;;;4.00;;
17574;SDS011;8906;43.590;1.418;2023-04-08T06:46:29;3.40;;;3.10;;
17574;SDS011;8906;43.590;1.418;2023-04-08T06:48:57;4.10;;;3.50;;
17574;SDS011;8906;43.590;1.418;2023-04-08T06:51:24;4.17;;;3.43;;
17574;SDS011;8906;43.590;1.418;2023-04-08T06:53:52;4.33;;;2.80;;
17574;SDS011;8906;43.590;1.418;2023-04-08T06:56:19;6.77;;;3.40;;
17574;SDS011;8906;43.590;1.418;2023-04-08T06:58:47;2.90;;;2.43;;
17574;SDS011;8906;43.590;1.418;2023-04-08T07:01:14;3.80;;;3.00;;
17574;SDS011;8906;43.590;1.418;2023-04-08T07:03:41;5.20;;;3.43;;
17574;SDS011;8906;43.590;1.418;2023-04-08T07:06:10;4.17;;;2.87;;
17574;SDS011;8906;43.590;1.418;2023-04-08T07:08:36;4.53;;;2.77;;
17574;SDS011;8906;43.590;1.418;2023-04-08T07:11:03;3.37;;;2.37;;
17574;SDS011;8906;43.590;1.418;2023-04-08T07:13:30;2.87;;;2.50;;
17574;SDS011;8906;43.590;1.418;2023-04-08T07:15:57;2.63;;;2.10;;
17574;SDS011;8906;43.590;1.418;2023-04-08T07:18:25;4.73;;;2.70;;
17574;SDS011;8906;43.590;1.418;2023-04-08T07:20:52;3.33;;;2.63;;
17574;SDS011;8906;43.590;1.418;2023-04-08T07:23:21;1.80;;;1.63;;
17574;SDS011;8906;43.590;1.418;2023-04-08T07:25:48;4.63;;;2.30;;
17574;SDS011;8906;43.590;1.418;2023-04-08T07:28:15;2.37;;;2.17;;
17574;SDS011;8906;43.590;1.418;2023-04-08T07:30:41;2.97;;;2.10;;
17574;SDS011;8906;43.590;1.418;2023-04-08T07:33:08;4.13;;;2.90;;
17574;SDS011;8906;43.590;1.418;2023-04-08T07:35:35;3.03;;;2.50;;
17574;SDS011;8906;43.590;1.418;2023-04-08T07:38:03;2.47;;;2.00;;
17574;SDS011;8906;43.590;1.418;2023-04-08T07:40:36;2.37;;;2.00;;
17574;SDS011;8906;43.590;1.418;2023-04-08T07:43:03;3.23;;;2.03;;
17574;SDS011;8906;43.590;1.418;2023-04-08T07:45:30;2.33;;;1.87;;
17574;SDS011;8906;43.590;1.418;2023-04-08T07:47:57;3.13;;;2.83;;
17574;SDS011;8906;43.590;1.418;2023-04-08T07:50:24;3.50;;;2.33;;
17574;SDS011;8906;43.590;1.418;2023-04-08T07:52:51;3.17;;;2.20;;
17574;SDS011;8906;43.590;1.418;2023-04-08T07:55:19;2.93;;;2.20;;
17574;SDS011;8906;43.590;1.418;2023-04-08T07:57:47;2.17;;;1.70;;
17574;SDS011;8906;43.590;1.418;2023-04-08T08:00:14;2.50;;;2.00;;
17574;SDS011;8906;43.590;1.418;2023-04-08T08:02:45;1.90;;;1.73;;
17574;SDS011;8906;43.590;1.418;2023-04-08T08:05:13;1.87;;;1.77;;
17574;SDS011;8906;43.590;1.418;2023-04-08T08:07:40;1.60;;;1.50;;
17574;SDS011;8906;43.590;1.418;2023-04-08T08:10:07;3.77;;;2.30;;
17574;SDS011;8906;43.590;1.418;2023-04-08T08:12:35;2.03;;;1.63;;
17574;SDS011;8906;43.590;1.418;2023-04-08T08:15:03;2.50;;;1.63;;
17574;SDS011;8906;43.590;1.418;2023-04-08T08:17:31;2.67;;;1.60;;
17574;SDS011;8906;43.590;1.418;2023-04-08T08:19:58;5.43;;;1.83;;
17574;SDS011;8906;43.590;1.418;2023-04-08T08:22:25;2.85;;;2.08;;
17574;SDS011;8906;43.590;1.418;2023-04-08T08:24:54;1.90;;;1.45;;
17574;SDS011;8906;43.590;1.418;2023-04-08T08:27:21;1.92;;;1.55;;
17574;SDS011;8906;43.590;1.418;2023-04-08T08:29:48;4.47;;;1.63;;
17574;SDS011;8906;43.590;1.418;2023-04-08T08:32:17;2.85;;;1.38;;
17574;SDS011;8906;43.590;1.418;2023-04-08T08:34:44;2.60;;;1.85;;
17574;SDS011;8906;43.590;1.418;2023-04-08T08:37:11;2.97;;;1.75;;
17574;SDS011;8906;43.590;1.418;2023-04-08T08:39:38;4.57;;;1.67;;
17574;SDS011;8906;43.590;1.418;2023-04-08T08:42:05;3.22;;;1.92;;
17574;SDS011;8906;43.590;1.418;2023-04-08T08:44:33;2.67;;;1.80;;
17574;SDS011;8906;43.590;1.418;2023-04-08T08:47:00;2.80;;;1.90;;
17574;SDS011;8906;43.590;1.418;2023-04-08T08:49:28;1.85;;;1.70;;
17574;SDS011;8906;43.590;1.418;2023-04-08T08:51:55;3.40;;;1.90;;
17574;SDS011;8906;43.590;1.418;2023-04-08T08:54:23;5.93;;;2.03;;
17574;SDS011;8906;43.590;1.418;2023-04-08T08:56:51;2.05;;;1.00;;
17574;SDS011;8906;43.590;1.418;2023-04-08T08:59:18;2.17;;;1.30;;
17574;SDS011;8906;43.590;1.418;2023-04-08T09:01:45;2.08;;;1.73;;
17574;SDS011;8906;43.590;1.418;2023-04-08T09:04:12;3.15;;;1.05;;
17574;SDS011;8906;43.590;1.418;2023-04-08T09:06:42;3.40;;;1.58;;
17574;SDS011;8906;43.590;1.418;2023-04-08T09:09:09;1.58;;;1.27;;
17574;SDS011;8906;43.590;1.418;2023-04-08T09:11:36;1.85;;;1.10;;
17574;SDS011;8906;43.590;1.418;2023-04-08T09:14:04;3.28;;;1.30;;
17574;SDS011;8906;43.590;1.418;2023-04-08T09:16:42;2.42;;;0.93;;
17574;SDS011;8906;43.590;1.418;2023-04-08T09:19:09;1.65;;;1.40;;
17574;SDS011;8906;43.590;1.418;2023-04-08T09:21:37;2.00;;;1.45;;
17574;SDS011;8906;43.590;1.418;2023-04-08T09:24:07;1.20;;;1.10;;
17574;SDS011;8906;43.590;1.418;2023-04-08T09:26:34;4.85;;;1.35;;
17574;SDS011;8906;43.590;1.418;2023-04-08T09:29:03;1.20;;;1.10;;
17574;SDS011;8906;43.590;1.418;2023-04-08T09:31:31;2.15;;;1.35;;
17574;SDS011;8906;43.590;1.418;2023-04-08T09:34:00;1.80;;;1.70;;
17574;SDS011;8906;43.590;1.418;2023-04-08T09:36:36;1.65;;;1.55;;
17574;SDS011;8906;43.590;1.418;2023-04-08T09:39:03;1.88;;;1.77;;
17574;SDS011;8906;43.590;1.418;2023-04-08T09:41:34;1.67;;;1.52;;
17574;SDS011;8906;43.590;1.418;2023-04-08T09:44:03;2.75;;;1.15;;
17574;SDS011;8906;43.590;1.418;2023-04-08T09:46:32;2.10;;;1.45;;
17574;SDS011;8906;43.590;1.418;2023-04-08T09:49:11;2.40;;;1.13;;
17574;SDS011;8906;43.590;1.418;2023-04-08T09:51:42;1.77;;;1.27;;
17574;SDS011;8906;43.590;1.418;2023-04-08T09:54:16;3.72;;;1.33;;
17574;SDS011;8906;43.590;1.418;2023-04-08T09:56:50;1.63;;;1.48;;
17574;SDS011;8906;43.590;1.418;2023-04-08T09:59:25;1.70;;;1.50;;
17574;SDS011;8906;43.590;1.418;2023-04-08T10:01:57;3.15;;;1.65;;
17574;SDS011;8906;43.590;1.418;2023-04-08T10:04:30;2.50;;;1.77;;
17574;SDS011;8906;43.590;1.418;2023-04-08T10:07:03;1.73;;;1.60;;
17574;SDS011;8906;43.590;1.418;2023-04-08T10:09:31;2.20;;;1.90;;
17574;SDS011;8906;43.590;1.418;2023-04-08T10:12:00;3.30;;;1.55;;
17574;SDS011;8906;43.590;1.418;2023-04-08T10:14:29;3.78;;;1.63;;
17574;SDS011;8906;43.590;1.418;2023-04-08T10:17:22;2.58;;;1.75;;
17574;SDS011;8906;43.590;1.418;2023-04-08T10:19:50;2.40;;;0.98;;
17574;SDS011;8906;43.590;1.418;2023-04-08T10:25:28;2.40;;;1.23;;
17574;SDS011;8906;43.590;1.418;2023-04-08T10:27:58;1.75;;;1.48;;
17574;SDS011;8906;43.590;1.418;2023-04-08T10:30:39;2.40;;;2.20;;
17574;SDS011;8906;43.590;1.418;2023-04-08T10:33:10;3.28;;;1.58;;
17574;SDS011;8906;43.590;1.418;2023-04-08T10:35:40;1.60;;;1.50;;
17574;SDS011;8906;43.590;1.418;2023-04-08T10:38:10;1.42;;;1.33;;
17574;SDS011;8906;43.590;1.418;2023-04-08T10:40:38;2.05;;;1.38;;
17574;SDS011;8906;43.590;1.418;2023-04-08T10:43:08;1.60;;;1.35;;
17574;SDS011;8906;43.590;1.418;2023-04-08T10:45:36;2.00;;;1.60;;
17574;SDS011;8906;43.590;1.418;2023-04-08T10:48:12;3.92;;;1.77;;
17574;SDS011;8906;43.590;1.418;2023-04-08T10:50:41;1.23;;;1.13;;
17574;SDS011;8906;43.590;1.418;2023-04-08T10:53:09;3.17;;;1.60;;
17574;SDS011;8906;43.590;1.418;2023-04-08T10:55:36;2.53;;;1.60;;
17574;SDS011;8906;43.590;1.418;2023-04-08T10:58:08;2.35;;;1.33;;
17574;SDS011;8906;43.590;1.418;2023-04-08T11:00:39;2.60;;;1.25;;
17574;SDS011;8906;43.590;1.418;2023-04-08T11:03:06;1.60;;;1.50;;
17574;SDS011;8906;43.590;1.418;2023-04-08T11:05:34;2.60;;;1.55;;
17574;SDS011;8906;43.590;1.418;2023-04-08T11:08:02;1.38;;;1.25;;
17574;SDS011;8906;43.590;1.418;2023-04-08T11:10:30;1.50;;;1.08;;
17574;SDS011;8906;43.590;1.418;2023-04-08T11:13:02;6.15;;;2.20;;
17574;SDS011;8906;43.590;1.418;2023-04-08T11:15:34;2.00;;;1.40;;
17574;SDS011;8906;43.590;1.418;2023-04-08T11:18:10;3.33;;;1.42;;
17574;SDS011;8906;43.590;1.418;2023-04-08T11:20:37;1.60;;;1.23;;
17574;SDS011;8906;43.590;1.418;2023-04-08T11:23:05;2.00;;;1.10;;
17574;SDS011;8906;43.590;1.418;2023-04-08T11:25:38;1.80;;;1.02;;
17574;SDS011;8906;43.590;1.418;2023-04-08T11:28:05;2.08;;;1.50;;
17574;SDS011;8906;43.590;1.418;2023-04-08T11:30:34;1.13;;;1.02;;
17574;SDS011;8906;43.590;1.418;2023-04-08T11:33:01;1.75;;;1.38;;
17574;SDS011;8906;43.590;1.418;2023-04-08T11:35:28;1.75;;;1.45;;
17574;SDS011;8906;43.590;1.418;2023-04-08T11:37:56;1.88;;;1.35;;
17574;SDS011;8906;43.590;1.418;2023-04-08T11:40:23;1.50;;;1.40;;
17574;SDS011;8906;43.590;1.418;2023-04-08T11:42:51;3.53;;;1.48;;
17574;SDS011;8906;43.590;1.418;2023-04-08T11:45:19;2.47;;;2.28;;
17574;SDS011;8906;43.590;1.418;2023-04-08T11:47:48;2.53;;;1.70;;
17574;SDS011;8906;43.590;1.418;2023-04-08T11:50:21;1.73;;;1.40;;
17574;SDS011;8906;43.590;1.418;2023-04-08T11:52:49;1.42;;;1.27;;
17574;SDS011;8906;43.590;1.418;2023-04-08T11:55:23;1.40;;;1.30;;
17574;SDS011;8906;43.590;1.418;2023-04-08T11:57:50;2.67;;;1.38;;
17574;SDS011;8906;43.590;1.418;2023-04-08T12:00:18;3.15;;;1.52;;
17574;SDS011;8906;43.590;1.418;2023-04-08T12:02:45;1.48;;;1.38;;
17574;SDS011;8906;43.590;1.418;2023-04-08T12:05:14;1.50;;;1.35;;
17574;SDS011;8906;43.590;1.418;2023-04-08T12:07:42;4.35;;;1.30;;
17574;SDS011;8906;43.590;1.418;2023-04-08T12:10:10;3.85;;;1.35;;
17574;SDS011;8906;43.590;1.418;2023-04-08T12:12:37;5.30;;;1.67;;
17574;SDS011;8906;43.590;1.418;2023-04-08T12:15:05;3.15;;;1.48;;
17574;SDS011;8906;43.590;1.418;2023-04-08T12:17:33;1.75;;;1.23;;
17574;SDS011;8906;43.590;1.418;2023-04-08T12:20:00;2.53;;;1.33;;
17574;SDS011;8906;43.590;1.418;2023-04-08T12:22:29;2.13;;;1.65;;
17574;SDS011;8906;43.590;1.418;2023-04-08T12:24:56;1.30;;;1.20;;
17574;SDS011;8906;43.590;1.418;2023-04-08T12:27:23;1.30;;;1.20;;
17574;SDS011;8906;43.590;1.418;2023-04-08T12:29:50;2.65;;;1.83;;
17574;SDS011;8906;43.590;1.418;2023-04-08T12:32:17;2.40;;;1.42;;
17574;SDS011;8906;43.590;1.418;2023-04-08T12:34:44;1.98;;;1.42;;
17574;SDS011;8906;43.590;1.418;2023-04-08T12:37:11;1.48;;;1.30;;
17574;SDS011;8906;43.590;1.418;2023-04-08T12:39:39;1.88;;;1.10;;
17574;SDS011;8906;43.590;1.418;2023-04-08T12:42:06;5.15;;;1.85;;
17574;SDS011;8906;43.590;1.418;2023-04-08T12:44:33;1.38;;;1.00;;
17574;SDS011;8906;43.590;1.418;2023-04-08T12:47:00;3.15;;;1.17;;
17574;SDS011;8906;43.590;1.418;2023-04-08T12:49:27;1.50;;;0.80;;
17574;SDS011;8906;43.590;1.418;2023-04-08T12:51:54;1.90;;;1.15;;
17574;SDS011;8906;43.590;1.418;2023-04-08T12:54:21;1.27;;;0.90;;
17574;SDS011;8906;43.590;1.418;2023-04-08T12:56:50;1.42;;;1.00;;
17574;SDS011;8906;43.590;1.418;2023-04-08T12:59:16;1.63;;;0.90;;
17574;SDS011;8906;43.590;1.418;2023-04-08T13:01:43;1.55;;;0.88;;
17574;SDS011;8906;43.590;1.418;2023-04-08T13:04:11;2.97;;;1.10;;
17574;SDS011;8906;43.590;1.418;2023-04-08T13:06:38;1.55;;;0.98;;
17574;SDS011;8906;43.590;1.418;2023-04-08T13:09:05;1.00;;;0.85;;
17574;SDS011;8906;43.590;1.418;2023-04-08T13:11:33;1.65;;;1.05;;
17574;SDS011;8906;43.590;1.418;2023-04-08T13:14:02;0.90;;;0.90;;
17574;SDS011;8906;43.590;1.418;2023-04-08T13:16:29;3.20;;;1.55;;
17574;SDS011;8906;43.590;1.418;2023-04-08T13:18:56;1.40;;;0.80;;
17574;SDS011;8906;43.590;1.418;2023-04-08T13:21:23;0.73;;;0.73;;
17574;SDS011;8906;43.590;1.418;2023-04-08T13:23:50;1.75;;;1.10;;
17574;SDS011;8906;43.590;1.418;2023-04-08T13:26:17;1.10;;;1.00;;
17574;SDS011;8906;43.590;1.418;2023-04-08T13:28:44;1.67;;;0.90;;
17574;SDS011;8906;43.590;1.418;2023-04-08T13:31:13;1.23;;;1.02;;
17574;SDS011;8906;43.590;1.418;2023-04-08T13:33:39;3.80;;;0.82;;
17574;SDS011;8906;43.590;1.418;2023-04-08T13:36:06;1.83;;;1.00;;
17574;SDS011;8906;43.590;1.418;2023-04-08T13:38:33;0.82;;;0.80;;
17574;SDS011;8906;43.590;1.418;2023-04-08T13:41:00;2.65;;;0.80;;
17574;SDS011;8906;43.590;1.418;2023-04-08T13:43:28;1.30;;;1.20;;
17574;SDS011;8906;43.590;1.418;2023-04-08T13:45:55;2.53;;;0.95;;
17574;SDS011;8906;43.590;1.418;2023-04-08T13:48:23;1.02;;;0.57;;
17574;SDS011;8906;43.590;1.418;2023-04-08T13:50:50;0.98;;;0.60;;
17574;SDS011;8906;43.590;1.418;2023-04-08T13:53:17;0.93;;;0.70;;
17574;SDS011;8906;43.590;1.418;2023-04-08T13:55:44;5.13;;;1.30;;
17574;SDS011;8906;43.590;1.418;2023-04-08T13:58:11;0.77;;;0.77;;
17574;SDS011;8906;43.590;1.418;2023-04-08T14:00:38;0.95;;;0.60;;
17574;SDS011;8906;43.590;1.418;2023-04-08T14:03:05;2.45;;;1.45;;
17574;SDS011;8906;43.590;1.418;2023-04-08T14:05:33;1.88;;;0.82;;
17574;SDS011;8906;43.590;1.418;2023-04-08T14:08:00;1.40;;;0.90;;
17574;SDS011;8906;43.590;1.418;2023-04-08T14:10:27;0.73;;;0.70;;
17574;SDS011;8906;43.590;1.418;2023-04-08T14:12:54;2.55;;;1.15;;
17574;SDS011;8906;43.590;1.418;2023-04-08T14:15:21;0.82;;;0.63;;
17574;SDS011;8906;43.590;1.418;2023-04-08T14:17:48;3.63;;;0.77;;
17574;SDS011;8906;43.590;1.418;2023-04-08T14:20:15;0.60;;;0.60;;
17574;SDS011;8906;43.590;1.418;2023-04-08T14:22:43;1.17;;;1.08;;
17574;SDS011;8906;43.590;1.418;2023-04-08T14:25:10;0.70;;;0.60;;
17574;SDS011;8906;43.590;1.418;2023-04-08T14:27:37;0.60;;;0.60;;
17574;SDS011;8906;43.590;1.418;2023-04-08T14:30:06;0.88;;;0.57;;
17574;SDS011;8906;43.590;1.418;2023-04-08T14:32:33;0.88;;;0.70;;
17574;SDS011;8906;43.590;1.418;2023-04-08T14:35:00;3.33;;;0.88;;
17574;SDS011;8906;43.590;1.418;2023-04-08T14:37:27;1.02;;;0.70;;
17574;SDS011;8906;43.590;1.418;2023-04-08T14:39:56;1.77;;;0.57;;
17574;SDS011;8906;43.590;1.418;2023-04-08T14:42:23;1.85;;;1.75;;
17574;SDS011;8906;43.590;1.418;2023-04-08T14:44:50;2.15;;;0.98;;
17574;SDS011;8906;43.590;1.418;2023-04-08T14:47:17;0.80;;;0.80;;
17574;SDS011;8906;43.590;1.418;2023-04-08T14:49:44;0.93;;;0.68;;
17574;SDS011;8906;43.590;1.418;2023-04-08T14:52:11;0.82;;;0.80;;
17574;SDS011;8906;43.590;1.418;2023-04-08T14:54:38;2.20;;;0.60;;
17574;SDS011;8906;43.590;1.418;2023-04-08T14:57:09;0.73;;;0.73;;
17574;SDS011;8906;43.590;1.418;2023-04-08T14:59:37;2.80;;;1.10;;
17574;SDS011;8906;43.590;1.418;2023-04-08T15:02:04;0.75;;;0.65;;
17574;SDS011;8906;43.590;1.418;2023-04-08T15:04:30;1.30;;;0.88;;
17574;SDS011;8906;43.590;1.418;2023-04-08T15:06:57;0.70;;;0.55;;
17574;SDS011;8906;43.590;1.418;2023-04-08T15:09:24;0.52;;;0.52;;